CDY weather

Cagayan de Sulu Airport
Mapun, Tawi-Tawi Province, Philippines

Public forecast

Using degrees Celsius for public forecast. Weather courtesy of forecast.io.

Closest aviation weather report (METAR) to Cagayan de Sulu Airport

Closest report is Sandakan Airport, 71.7 nm (132.9 km) SSW. Retrieved 2019/10/18 10:00 UTC (38 minutes ago):

WBKS 181000Z 08004KT 040V140 9999 FEW016 BKN300 29/25 Q1008

Closest aviation forecast (TAF) to Cagayan de Sulu Airport

Closest forecast is Sandakan Airport, 71.7 nm (132.9 km) SSW. Retrieved 2019/10/18 06:00 UTC (5 hours ago):

TAF WBKS 180500Z 1806/1906 08008KT 9999 FEW015 TEMPO 1806/1810 5000 RA FEW010 FEW016CB SCT040